createdAt,value
2023-03-13T00:01:38.298Z,93449.44
2023-03-13T00:06:45.161Z,93439.88
2023-03-13T00:11:52.971Z,93438.26
2023-03-13T00:17:00.288Z,93432.02
2023-03-13T00:22:07.497Z,93439.02
2023-03-13T00:27:14.475Z,93436.20
2023-03-13T00:32:21.484Z,93440.42
2023-03-13T00:37:28.262Z,93436.98
2023-03-13T00:42:35.232Z,93433.97
2023-03-13T00:47:42.522Z,93432.66
2023-03-13T00:52:49.738Z,93430.66
2023-03-13T00:57:56.646Z,93422.05
2023-03-13T01:03:03.832Z,93419.80
2023-03-13T01:08:10.738Z,93410.20
2023-03-13T01:13:17.736Z,93401.78
2023-03-13T01:18:24.861Z,93394.71
2023-03-13T01:23:32.016Z,93398.59
2023-03-13T01:28:39.431Z,93397.89
2023-03-13T01:33:47.543Z,93386.75
2023-03-13T01:38:57.336Z,93390.56
2023-03-13T01:44:05.005Z,93381.11
2023-03-13T01:49:16.215Z,93386.57
2023-03-13T01:54:36.650Z,93387.31
2023-03-13T01:59:53.643Z,93389.05
2023-03-13T02:05:05.450Z,93392.63
2023-03-13T02:10:13.661Z,93397.05
2023-03-13T02:15:27.608Z,93397.56
2023-03-13T02:20:33.211Z,93390.50
2023-03-13T02:25:54.537Z,93393.69
2023-03-13T02:31:02.365Z,93384.19
2023-03-13T02:36:11.335Z,93366.81
2023-03-13T02:41:19.817Z,93372.63
2023-03-13T02:46:26.569Z,93375.66
2023-03-13T02:51:43.446Z,93373.73
2023-03-13T02:56:54.834Z,93378.42
2023-03-13T03:02:01.533Z,93379.08
2023-03-13T03:07:08.225Z,93372.05
2023-03-13T03:12:14.917Z,93358.44
2023-03-13T03:17:22.506Z,93359.95
2023-03-13T03:22:29.170Z,93354.42
2023-03-13T03:27:36.819Z,93355.86
2023-03-13T03:32:43.558Z,93359.04
2023-03-13T03:37:50.302Z,93361.91
2023-03-13T03:42:57.002Z,93353.23
2023-03-13T03:48:03.688Z,93361.67
2023-03-13T03:53:10.371Z,93354.36
2023-03-13T03:58:17.078Z,93347.06
2023-03-13T04:03:23.958Z,93342.50
2023-03-13T04:08:30.733Z,93339.38
2023-03-13T04:13:37.445Z,93339.20
2023-03-13T04:18:44.651Z,93343.20
2023-03-13T04:23:51.329Z,93344.16
2023-03-13T04:28:58.042Z,93346.62
2023-03-13T04:34:04.718Z,93352.87
2023-03-13T04:39:11.480Z,93351.73
2023-03-13T04:44:18.183Z,93352.52
2023-03-13T04:49:24.901Z,93352.28
2023-03-13T04:54:32.409Z,93346.96
2023-03-13T04:59:39.525Z,93341.95
2023-03-13T05:04:46.334Z,93335.68
2023-03-13T05:09:53.380Z,93331.66
2023-03-13T05:15:00.080Z,93329.36
2023-03-13T05:20:09.580Z,93329.88
2023-03-13T05:25:16.481Z,93319.09
2023-03-13T05:30:23.500Z,93314.31
2023-03-13T05:35:30.507Z,93313.85
2023-03-13T05:40:37.489Z,93314.14
2023-03-13T05:45:44.990Z,93160.50
2023-03-13T05:50:51.757Z,93315.92
2023-03-13T05:55:58.712Z,93301.59
2023-03-13T06:01:12.051Z,93300.39
2023-03-13T06:06:18.878Z,93296.86
2023-03-13T06:11:25.979Z,93293.69
2023-03-13T06:16:33.122Z,93295.89
2023-03-13T06:21:41.156Z,93298.10
2023-03-13T06:26:52.293Z,93306.52
2023-03-13T06:31:59.154Z,93301.94
2023-03-13T06:37:06.187Z,93291.81
2023-03-13T06:42:13.157Z,93296.46
2023-03-13T06:47:20.345Z,93293.86
2023-03-13T06:52:37.770Z,93293.13
2023-03-13T06:57:35.821Z,93291.22
2023-03-13T07:02:42.674Z,93289.44
2023-03-13T07:07:49.598Z,93293.34
2023-03-13T07:12:56.676Z,93293.25
2023-03-13T07:18:03.882Z,93294.97
2023-03-13T07:23:10.961Z,93292.17
2023-03-13T07:28:18.089Z,93295.39
2023-03-13T07:33:25.136Z,93292.95
2023-03-13T07:38:31.977Z,93280.42
2023-03-13T07:43:39.124Z,93280.70
2023-03-13T07:48:46.429Z,93275.61
2023-03-13T07:53:53.962Z,93268.33
2023-03-13T07:59:01.105Z,93275.43
2023-03-13T08:04:08.161Z,93278.61
2023-03-13T08:09:14.951Z,93266.59
2023-03-13T08:14:21.926Z,93252.90
2023-03-13T08:19:29.577Z,93266.23
2023-03-13T08:24:36.459Z,93266.03
2023-03-13T08:29:43.334Z,93253.32
2023-03-13T08:34:50.741Z,93246.10
2023-03-13T08:39:57.744Z,93261.16
2023-03-13T08:45:05.399Z,93261.09
2023-03-13T08:50:12.935Z,93268.83
2023-03-13T08:55:19.977Z,93258.69
2023-03-13T09:00:26.984Z,93265.08
2023-03-13T09:05:40.689Z,93254.29
2023-03-13T09:10:43.412Z,93251.62
2023-03-13T09:16:03.173Z,93249.44
2023-03-13T09:21:17.763Z,93239.63
2023-03-13T09:26:26.157Z,93236.53
2023-03-13T09:31:35.303Z,93230.51
2023-03-13T09:36:42.881Z,93225.66
2023-03-13T09:42:17.639Z,93212.13
2023-03-13T09:47:43.451Z,93211.38
2023-03-13T09:52:55.188Z,93200.12
2023-03-13T09:58:11.827Z,93195.53
2023-03-13T10:03:34.986Z,93186.11
2023-03-13T10:08:41.865Z,93177.55
2023-03-13T10:14:09.790Z,93189.30
2023-03-13T10:19:24.135Z,93172.91
2023-03-13T10:24:50.890Z,93166.30
2023-03-13T10:29:57.745Z,93166.52
2023-03-13T10:35:05.802Z,93156.98
2023-03-13T10:40:25.397Z,93145.03
2023-03-13T10:45:36.625Z,93134.44
2023-03-13T10:50:50.740Z,93163.14
2023-03-13T10:56:05.565Z,93148.78
2023-03-13T11:01:25.364Z,93151.16
2023-03-13T11:06:37.023Z,93128.33
2023-03-13T11:12:00.344Z,93128.63
2023-03-13T11:17:40.888Z,93130.91
2023-03-13T11:23:26.870Z,93132.70
2023-03-13T11:29:03.534Z,93117.71
2023-03-13T11:34:35.753Z,93123.04
2023-03-13T11:39:58.791Z,93130.72
2023-03-13T11:45:24.893Z,93119.70
2023-03-13T11:50:41.597Z,93101.45
2023-03-13T11:56:13.840Z,93101.40
2023-03-13T12:01:24.767Z,93086.70
2023-03-13T12:06:48.363Z,93079.87
2023-03-13T12:12:08.490Z,93073.95
2023-03-13T12:17:36.893Z,93072.78
2023-03-13T12:23:21.185Z,93062.98
2023-03-13T12:28:56.354Z,93055.14
2023-03-13T12:34:27.066Z,93057.92
2023-03-13T12:39:53.404Z,93068.43
2023-03-13T12:45:02.113Z,93076.09
2023-03-13T12:50:26.066Z,93064.30
2023-03-13T12:55:46.062Z,93047.94
2023-03-13T13:00:54.694Z,93040.14
2023-03-13T13:06:06.132Z,93042.73
2023-03-13T13:11:42.966Z,93032.92
2023-03-13T13:17:00.105Z,93013.80
2023-03-13T13:22:39.910Z,93016.27
2023-03-13T13:27:51.318Z,93019.17
2023-03-13T13:33:22.945Z,93025.01
2023-03-13T13:38:35.955Z,93015.44
2023-03-13T13:43:51.504Z,93009.78
2023-03-13T13:49:22.218Z,93016.02
2023-03-13T13:54:53.119Z,93025.04
2023-03-13T14:00:25.663Z,93010.52
2023-03-13T14:05:35.096Z,93005.41
2023-03-13T14:10:48.522Z,92993.19
2023-03-13T14:15:56.152Z,92974.09
2023-03-13T14:21:11.309Z,92949.16
2023-03-13T14:26:30.894Z,92950.13
2023-03-13T14:31:41.208Z,92955.59
2023-03-13T14:37:14.818Z,92947.59
2023-03-13T14:42:16.114Z,92928.79
2023-03-13T14:47:33.746Z,92947.06
2023-03-13T14:52:49.898Z,92927.66
2023-03-13T14:58:09.851Z,92904.33
2023-03-13T15:03:25.355Z,92932.54
2023-03-13T15:08:33.524Z,92924.55
2023-03-13T15:13:40.506Z,92917.78
2023-03-13T15:18:47.646Z,92908.50
2023-03-13T15:24:02.465Z,92755.35
2023-03-13T15:29:10.332Z,92896.09
2023-03-13T15:34:18.246Z,92880.41
2023-03-13T15:39:25.372Z,92887.88
2023-03-13T15:44:32.310Z,92865.88
2023-03-13T15:49:39.182Z,92870.68
2023-03-13T15:54:48.032Z,92869.55
2023-03-13T15:59:56.355Z,92862.91
2023-03-13T16:05:05.319Z,92861.68
2023-03-13T16:10:25.093Z,92854.17
2023-03-13T16:15:31.216Z,92854.53
2023-03-13T16:20:38.349Z,92860.11
2023-03-13T16:25:47.263Z,92867.20
2023-03-13T16:30:55.743Z,92855.02
2023-03-13T16:36:03.041Z,92860.69
2023-03-13T16:41:12.585Z,92853.95
2023-03-13T16:46:23.366Z,92850.10
2023-03-13T16:51:31.216Z,92851.60
2023-03-13T16:56:44.220Z,92836.82
2023-03-13T17:01:51.668Z,92841.15
2023-03-13T17:06:58.692Z,92839.86
2023-03-13T17:12:05.741Z,92828.95
2023-03-13T17:17:19.445Z,92817.17
2023-03-13T17:22:26.122Z,92813.53
2023-03-13T17:27:33.863Z,92810.77
2023-03-13T17:32:40.842Z,92813.55
2023-03-13T17:37:48.425Z,92803.03
2023-03-13T17:42:56.705Z,92803.28
2023-03-13T17:48:03.733Z,92801.60
2023-03-13T17:53:10.580Z,92803.34
2023-03-13T17:58:17.570Z,92800.77
2023-03-13T18:03:24.843Z,92807.86
2023-03-13T18:08:32.066Z,92801.70
2023-03-13T18:13:40.055Z,92791.36
2023-03-13T18:18:46.743Z,92773.83
2023-03-13T18:23:53.899Z,92768.34
2023-03-13T18:29:02.213Z,92778.67
2023-03-13T18:34:09.000Z,92777.47
2023-03-13T18:39:17.895Z,92775.83
2023-03-13T18:44:24.619Z,92745.84
2023-03-13T18:49:31.405Z,92746.91
2023-03-13T18:54:38.418Z,92741.38
2023-03-13T18:59:46.015Z,92737.66
2023-03-13T19:04:52.929Z,92720.86
2023-03-13T19:10:01.447Z,92709.13
2023-03-13T19:15:09.994Z,92695.81
2023-03-13T19:20:21.258Z,92678.27
2023-03-13T19:25:29.681Z,92666.75
2023-03-13T19:30:36.654Z,92656.80
2023-03-13T19:35:43.630Z,92643.08
2023-03-13T19:40:50.354Z,92644.36
2023-03-13T19:45:57.162Z,92635.91
2023-03-13T19:51:03.922Z,92632.85
2023-03-13T19:56:22.601Z,92633.92
2023-03-13T20:01:30.425Z,92620.91
2023-03-13T20:06:38.422Z,92610.56
2023-03-13T20:11:46.274Z,92602.17
2023-03-13T20:16:53.352Z,92600.17
2023-03-13T20:22:02.534Z,92576.16
2023-03-13T20:27:09.456Z,92575.44
2023-03-13T20:32:16.403Z,92564.09
2023-03-13T20:37:23.378Z,92563.84
2023-03-13T20:42:31.005Z,92557.53
2023-03-13T20:47:39.300Z,92530.72
2023-03-13T20:52:46.064Z,92544.36
2023-03-13T20:57:53.297Z,92533.95
2023-03-13T21:03:00.270Z,92526.48
2023-03-13T21:08:07.598Z,92522.80
2023-03-13T21:13:15.394Z,92526.48
2023-03-13T21:18:22.284Z,92496.70
2023-03-13T21:23:29.536Z,92481.37
2023-03-13T21:28:37.021Z,92472.65
2023-03-13T21:33:45.921Z,92478.84
2023-03-13T21:38:53.209Z,92477.94
2023-03-13T21:43:59.953Z,92471.69
2023-03-13T21:49:06.714Z,92460.68
2023-03-13T21:54:13.422Z,92435.43
2023-03-13T21:59:22.175Z,92428.51
2023-03-13T22:04:29.095Z,92425.63
2023-03-13T22:09:36.438Z,92393.61
2023-03-13T22:14:43.105Z,92383.98
2023-03-13T22:19:50.566Z,92394.71
2023-03-13T22:24:57.327Z,92384.86
2023-03-13T22:30:05.459Z,92363.87
2023-03-13T22:35:12.458Z,92364.64
2023-03-13T22:40:20.825Z,92360.08
2023-03-13T22:45:27.651Z,92362.95
2023-03-13T22:50:36.222Z,92349.47
2023-03-13T22:55:43.545Z,92342.08
2023-03-13T23:00:51.681Z,92333.50
2023-03-13T23:06:28.697Z,92339.69
2023-03-13T23:11:36.050Z,92317.26
2023-03-13T23:16:43.238Z,92321.97
2023-03-13T23:21:50.319Z,92294.30
2023-03-13T23:26:57.434Z,92287.54
2023-03-13T23:32:04.345Z,92281.38
2023-03-13T23:37:11.139Z,92262.16
2023-03-13T23:42:18.291Z,92261.22
2023-03-13T23:47:25.343Z,92236.66
2023-03-13T23:52:34.570Z,92248.41
2023-03-13T23:57:41.414Z,92220.79
